createdAt,value
2018-04-19T00:00:55.237Z,11.30
2018-04-19T00:03:23.756Z,11.20
2018-04-19T00:05:53.029Z,11.20
2018-04-19T00:08:23.128Z,11.00
2018-04-19T00:10:52.677Z,10.90
2018-04-19T00:13:22.120Z,10.80
2018-04-19T00:15:50.600Z,10.80
2018-04-19T00:18:19.095Z,10.90
2018-04-19T00:20:49.215Z,11.20
2018-04-19T00:23:17.857Z,11.10
2018-04-19T00:25:47.097Z,11.00
2018-04-19T00:28:15.608Z,11.00
2018-04-19T00:30:44.141Z,10.90
2018-04-19T00:33:13.469Z,11.10
2018-04-19T00:35:41.974Z,11.00
2018-04-19T00:38:10.458Z,11.10
2018-04-19T00:40:38.953Z,11.20
2018-04-19T00:43:07.454Z,11.30
2018-04-19T00:45:36.078Z,11.30
2018-04-19T00:48:04.234Z,11.20
2018-04-19T00:50:33.537Z,11.30
2018-04-19T00:53:09.337Z,11.20
2018-04-19T00:55:37.829Z,11.30
2018-04-19T00:58:06.356Z,10.90
2018-04-19T01:00:35.804Z,10.60
2018-04-19T01:03:04.083Z,10.40
2018-04-19T01:05:32.553Z,10.50
2018-04-19T01:08:01.073Z,10.60
2018-04-19T01:10:31.061Z,10.30
2018-04-19T01:12:59.317Z,10.30
2018-04-19T01:15:27.868Z,10.50
2018-04-19T01:17:57.108Z,10.40
2018-04-19T01:20:25.613Z,10.40
2018-04-19T01:22:54.181Z,10.40
2018-04-19T01:25:22.449Z,10.40
2018-04-19T01:27:50.937Z,10.20
2018-04-19T01:30:19.527Z,9.90
2018-04-19T01:32:48.001Z,9.90
2018-04-19T01:35:16.481Z,9.90
2018-04-19T01:37:44.978Z,9.70
2018-04-19T01:40:13.557Z,10.00
2018-04-19T01:42:42.197Z,10.20
2018-04-19T01:45:10.688Z,10.10
2018-04-19T01:47:40.085Z,10.00
2018-04-19T01:50:09.345Z,9.80
2018-04-19T01:52:37.825Z,9.80
2018-04-19T01:55:06.299Z,9.80
2018-04-19T01:57:34.799Z,9.90
2018-04-19T02:00:03.267Z,9.90
2018-04-19T02:02:31.417Z,9.80
2018-04-19T02:04:59.924Z,10.00
2018-04-19T02:07:28.429Z,9.70
2018-04-19T02:09:56.917Z,9.50
2018-04-19T02:12:25.412Z,9.70
2018-04-19T02:14:54.668Z,9.60
2018-04-19T02:17:23.205Z,9.60
2018-04-19T02:19:52.465Z,9.50
2018-04-19T02:22:21.093Z,9.40
2018-04-19T02:24:50.351Z,9.50
2018-04-19T02:27:18.836Z,9.40
2018-04-19T02:29:47.318Z,9.50
2018-04-19T02:32:15.794Z,9.50
2018-04-19T02:34:44.277Z,9.60
2018-04-19T02:37:13.002Z,9.50
2018-04-19T02:39:41.485Z,9.60
2018-04-19T02:42:10.737Z,9.50
2018-04-19T02:44:39.229Z,9.40
2018-04-19T02:47:07.813Z,9.50
2018-04-19T02:49:36.294Z,9.50
2018-04-19T02:52:05.625Z,9.50
2018-04-19T02:54:34.113Z,9.50
2018-04-19T02:57:02.621Z,9.30
2018-04-19T02:59:32.003Z,9.30
2018-04-19T03:02:00.550Z,9.20
2018-04-19T03:04:29.142Z,9.40
2018-04-19T03:06:57.710Z,8.90
2018-04-19T03:09:26.189Z,9.10
2018-04-19T03:11:54.877Z,9.10
2018-04-19T03:14:26.123Z,9.10
2018-04-19T03:16:54.811Z,9.10
2018-04-19T03:19:23.293Z,9.10
2018-04-19T03:21:51.780Z,9.00
2018-04-19T03:24:20.285Z,9.10
2018-04-19T03:26:48.775Z,8.90
2018-04-19T03:29:17.392Z,8.90
2018-04-19T03:31:46.645Z,9.00
2018-04-19T03:34:15.140Z,9.00
2018-04-19T03:36:43.724Z,9.00
2018-04-19T03:39:12.201Z,8.90
2018-04-19T03:41:40.712Z,9.00
2018-04-19T03:44:10.704Z,8.50
2018-04-19T03:46:39.269Z,8.60
2018-04-19T03:49:07.526Z,8.70
2018-04-19T03:51:36.024Z,8.80
2018-04-19T03:54:04.180Z,8.90
2018-04-19T03:56:32.657Z,8.80
2018-04-19T03:59:01.993Z,9.00
2018-04-19T04:01:30.470Z,8.90
2018-04-19T04:03:59.377Z,9.00
2018-04-19T04:06:27.864Z,9.00
2018-04-19T04:08:56.368Z,9.00
2018-04-19T04:11:24.913Z,8.90
2018-04-19T04:13:53.381Z,8.90
2018-04-19T04:16:33.324Z,8.60
2018-04-19T04:19:13.214Z,8.50
2018-04-19T04:21:53.041Z,8.30
2018-04-19T04:24:21.533Z,8.20
2018-04-19T04:26:50.025Z,8.20
2018-04-19T04:29:18.527Z,8.30
2018-04-19T04:31:47.024Z,8.50
2018-04-19T04:34:16.505Z,8.70
2018-04-19T04:36:44.981Z,8.60
2018-04-19T04:39:13.507Z,8.70
2018-04-19T04:41:42.857Z,8.60
2018-04-19T04:44:11.359Z,8.50
2018-04-19T04:46:39.854Z,8.70
2018-04-19T04:49:08.353Z,8.70
2018-04-19T04:51:36.857Z,8.80
2018-04-19T04:54:06.329Z,8.90
2018-04-19T04:56:34.658Z,8.80
2018-04-19T04:59:03.148Z,8.80
2018-04-19T05:01:31.642Z,8.70
2018-04-19T05:04:00.173Z,8.90
2018-04-19T05:06:29.200Z,9.00
2018-04-19T05:08:57.699Z,8.90
2018-04-19T05:11:25.987Z,8.90
2018-04-19T05:13:54.512Z,8.90
2018-04-19T05:16:23.439Z,9.20
2018-04-19T05:18:52.128Z,9.20
2018-04-19T05:21:20.730Z,9.40
2018-04-19T05:23:49.417Z,9.40
2018-04-19T05:26:17.904Z,9.40
2018-04-19T05:28:46.593Z,9.40
2018-04-19T05:31:15.181Z,9.50
2018-04-19T05:33:43.684Z,9.50
2018-04-19T05:36:12.331Z,9.60
2018-04-19T05:38:40.973Z,9.80
2018-04-19T05:41:10.286Z,10.00
2018-04-19T05:43:39.932Z,10.00
2018-04-19T05:46:08.481Z,10.00
2018-04-19T05:48:37.745Z,10.30
2018-04-19T05:51:06.217Z,10.30
2018-04-19T05:53:34.709Z,10.50
2018-04-19T05:56:03.285Z,10.80
2018-04-19T05:58:32.012Z,10.90
2018-04-19T06:01:01.338Z,11.10
2018-04-19T06:03:29.823Z,11.00
2018-04-19T06:05:58.489Z,11.10
2018-04-19T06:08:27.732Z,11.40
2018-04-19T06:10:55.873Z,11.40
2018-04-19T06:13:25.139Z,11.90
2018-04-19T06:15:53.622Z,11.80
2018-04-19T06:18:22.279Z,12.00
2018-04-19T06:20:50.906Z,12.20
2018-04-19T06:23:19.395Z,12.50
2018-04-19T06:25:48.441Z,13.10
2018-04-19T06:28:16.274Z,13.10
2018-04-19T06:30:45.580Z,13.50
2018-04-19T06:33:14.845Z,13.50
2018-04-19T06:35:43.393Z,13.50
2018-04-19T06:38:11.888Z,13.80
2018-04-19T06:40:40.460Z,14.00
2018-04-19T06:43:08.989Z,14.00
2018-04-19T06:45:37.531Z,14.10
2018-04-19T06:48:06.028Z,14.30
2018-04-19T06:50:34.533Z,14.50
2018-04-19T06:53:03.032Z,14.60
2018-04-19T06:55:31.942Z,14.70
2018-04-19T06:58:00.609Z,14.70
2018-04-19T07:00:29.337Z,15.00
2018-04-19T07:02:57.837Z,15.00
2018-04-19T07:05:26.409Z,15.20
2018-04-19T07:07:55.034Z,15.20
2018-04-19T07:10:23.637Z,15.40
2018-04-19T07:12:52.173Z,15.60
2018-04-19T07:15:20.869Z,15.60
2018-04-19T07:17:49.353Z,15.70
2018-04-19T07:20:17.925Z,15.70
2018-04-19T07:22:46.417Z,15.90
2018-04-19T07:25:15.037Z,16.10
2018-04-19T07:27:43.364Z,16.20
2018-04-19T07:30:11.861Z,16.00
2018-04-19T07:32:40.370Z,16.40
2018-04-19T07:35:08.862Z,16.50
2018-04-19T07:37:37.368Z,16.50
2018-04-19T07:40:06.605Z,16.70
2018-04-19T07:42:35.143Z,16.60
2018-04-19T07:45:04.420Z,17.00
2018-04-19T07:47:32.970Z,16.90
2018-04-19T07:50:01.465Z,16.90
2018-04-19T07:52:30.041Z,17.00
2018-04-19T07:54:58.536Z,17.00
2018-04-19T07:57:27.100Z,17.10
2018-04-19T07:59:55.606Z,17.20
2018-04-19T08:02:24.079Z,17.40
2018-04-19T08:04:52.673Z,17.40
2018-04-19T08:07:21.303Z,17.60
2018-04-19T08:09:50.649Z,17.70
2018-04-19T08:12:19.220Z,17.60
2018-04-19T08:14:47.876Z,17.90
2018-04-19T08:17:17.136Z,17.80
2018-04-19T08:19:45.743Z,17.70
2018-04-19T08:22:14.294Z,17.90
2018-04-19T08:24:42.843Z,17.90
2018-04-19T08:27:12.102Z,18.50
2018-04-19T08:29:40.669Z,18.40
2018-04-19T08:32:09.226Z,18.50
2018-04-19T08:34:37.705Z,18.60
2018-04-19T08:37:05.972Z,18.70
2018-04-19T08:39:35.207Z,18.80
2018-04-19T08:42:03.712Z,18.80
2018-04-19T08:44:32.215Z,18.90
2018-04-19T08:47:00.877Z,18.90
2018-04-19T08:49:29.386Z,19.00
2018-04-19T08:51:58.522Z,19.10
2018-04-19T08:54:27.084Z,19.10
2018-04-19T08:56:56.337Z,19.60
2018-04-19T08:59:24.961Z,19.50
2018-04-19T09:01:54.204Z,19.80
2018-04-19T09:04:22.694Z,19.70
2018-04-19T09:06:51.367Z,19.80
2018-04-19T09:09:19.838Z,19.90
2018-04-19T09:11:48.318Z,19.90
2018-04-19T09:14:16.921Z,20.00
2018-04-19T09:16:45.492Z,20.10
2018-04-19T09:19:13.960Z,20.20
2018-04-19T09:21:43.201Z,20.60
2018-04-19T09:24:11.676Z,20.50
2018-04-19T09:26:40.285Z,20.50
2018-04-19T09:29:08.970Z,20.50
2018-04-19T09:31:37.456Z,20.50
2018-04-19T10:16:41.065Z,20.60
2018-04-19T10:19:09.551Z,22.00
2018-04-19T10:21:37.875Z,22.00
2018-04-19T10:24:07.175Z,22.20
2018-04-19T10:26:36.421Z,22.20
2018-04-19T10:29:04.897Z,22.10
2018-04-19T10:31:33.393Z,22.10
2018-04-19T10:34:01.873Z,22.40
2018-04-19T10:36:30.409Z,22.20
2018-04-19T10:38:59.822Z,22.70
2018-04-19T10:41:28.313Z,22.60
2018-04-19T10:43:56.910Z,22.90
2018-04-19T10:46:25.449Z,23.00
2018-04-19T10:48:54.701Z,22.70
2018-04-19T10:51:23.172Z,22.70
2018-04-19T10:53:51.647Z,22.80
2018-04-19T11:08:47.358Z,23.00
2018-04-19T11:11:15.942Z,23.40
2018-04-19T11:13:44.635Z,23.40
2018-04-19T11:16:13.144Z,23.30
2018-04-19T11:18:41.633Z,23.40
2018-04-19T11:21:10.180Z,23.60
2018-04-19T11:23:38.670Z,23.70
2018-04-19T11:26:07.188Z,23.50
2018-04-19T11:28:35.738Z,23.70
2018-04-19T11:31:04.201Z,23.60
2018-04-19T11:33:32.716Z,23.50
2018-04-19T11:36:01.202Z,23.50
2018-04-19T11:38:29.700Z,24.00
2018-04-19T11:40:58.970Z,23.70
2018-04-19T11:43:27.465Z,23.70
2018-04-19T11:45:55.932Z,24.10
2018-04-19T11:48:24.493Z,24.20
2018-04-19T11:50:53.725Z,24.00
2018-04-19T11:53:22.220Z,23.90
